Terminal Aerodrome Forecast
Issued by NWS Charleston, WV

Current Version | Previous Version | Graphics & Text | Print | Product List | Glossary On
Versions: 1 2 3 4 5 6 7 8 9 10 11 12 13 14 15 16 17 18 19 20 21
000
FTUS41 KRLX 251136
TAFHTS
TAF
KHTS 251136Z 2512/2612 00000KT P6SM FEW250
     FM251500 19004KT P6SM BKN070
     FM251900 23007KT P6SM VCSH BKN040
     FM252300 VRB03KT P6SM SCT045 BKN110
     FM260600 00000KT P6SM BKN070=

USA.gov is the U.S. government's official web portal to all federal, state and local government web resources and services.